Terminal Aerodrome Forecast
Issued by NWS

Home | Current Version | Previous Version | Text Only | Print | Product List | Glossary On
Versions: 1 2 3 4 5 6 7 8 9 10 11 12 13 14 15 16 17
000
FTUS44 KLUB 042019 AAA
TAFCDS
TAF AMD
KCDS 042019Z 0420/0518 02018KT 4SM -PLSN BR OVC010
      TEMPO 0420/0424 1SM -SN OVC009
     FM050200 01011KT P6SM OVC025=

USA.gov is the U.S. government's official web portal to all federal, state and local government web resources and services.